MET2387 - Kansas City to Rochester

Bombardier Dash-8-Q200
838AH
1 hr 15 mins
294 nm
Scheduled - Daily

Bid/PiRep Status

Bid was submitted on Nov 22 2016.

PiRep # 74153: Approved by Dave Nichols on November 28th, 2016 10:07 UTC

Departure

Departing from
Kansas City (MCI)
Departure gate
Scheduled Departure
GMT 2000
Local 1400
METAR KMCI 272153Z 01008KT 10SM OVC016 12/08 A2992 RMK AO2 SLP132 T01170083
TAF KMCI 272057Z 2721/2818 02010KT P6SM OVC015 FM280800 VRB03KT 4SM BR OVC015 FM281300 06007KT P6SM OVC015

Arrival

Arriving at
Rochester (RST)
Arrival gate
A4
Scheduled Arrival
GMT 2115
Local 1515
METAR KRST 272154Z 35007KT 10SM OVC014 07/04 A2995 RMK AO2 SLP151 T00720044
TAF KRST 271813Z 2718/2818 36005KT P6SM OVC011 FM280600 03004KT 4SM BR OVC015 FM281100 VRB03KT 2SM BR OVC008 FM281200 05004KT 1 1/2SM BR OVC003 FM281400 07005KT 3SM BR BKN015 FM281600 08005KT P6SM SCT040

Route Map

Planning Resources

ROYAL3 TONCE DSM J25 MCW YESUR [D147M] EGACE [D110M] D095M
ROYAL3 TONCE DSM J25 MCW RST
ROYAL 5 STJ DSM J25 MCW RST KRST
MCI STJ DSM J25 MCW RST
BACNN DSM JORDY MCW
Route:
OFP Layout:
Units:
Detailed Navlog:
ETOPS Planning:
Plan Stepclimbs:
Runway Analysis:
Include NOTAMS:
FIR NOTAMS:
Flight Maps:

Return Flights

MET2386
Bombardier Dash-8-Q200
1635 GMT
MET2388
Bombardier Dash-8-Q200
2135 GMT

Popularity

Hub Current Bids PiReps this month Total PiReps
KMCI 0 0 3
KLAX 0 0 0
KBOS 0 0 0